Time,TemperatureF,DewpointF,PressureIn,WindDirection,WindDirectionDegrees,WindSpeedMPH,WindSpeedGustMPH,Humidity,HourlyPrecipIn,Conditions,Clouds,dailyrainin,SoftwareType,DateUTC
2013-03-02 00:00:00,47.0,44.8,30.07,SE,135,4.0,4.7,92,0.00,,,0.00,WUHU216HW,2013-03-02 08:00:00,
2013-03-02 00:05:00,46.6,44.2,30.07,SE,135,5.6,5.6,91,0.00,,,0.00,WUHU216HW,2013-03-02 08:05:00,
2013-03-02 00:10:00,46.4,44.3,30.07,SE,135,3.1,5.6,92,0.00,,,0.00,WUHU216HW,2013-03-02 08:10:00,
2013-03-02 00:15:00,46.3,44.1,30.06,SE,135,5.8,5.8,92,0.00,,,0.00,WUHU216HW,2013-03-02 08:15:00,
2013-03-02 00:20:00,46.3,44.1,30.06,SE,135,5.4,6.3,92,0.00,,,0.00,WUHU216HW,2013-03-02 08:20:00,
2013-03-02 00:25:00,46.3,44.1,30.06,SSE,158,5.4,6.5,92,0.00,,,0.00,WUHU216HW,2013-03-02 08:25:00,
2013-03-02 00:30:00,46.4,44.6,30.06,SE,135,5.4,6.5,93,0.00,,,0.00,WUHU216HW,2013-03-02 08:30:00,
2013-03-02 00:35:00,46.3,44.4,30.05,South,180,6.3,6.7,93,0.00,,,0.00,WUHU216HW,2013-03-02 08:35:00,
2013-03-02 00:40:00,46.4,44.6,30.05,SSE,158,6.0,6.7,93,0.00,,,0.00,WUHU216HW,2013-03-02 08:40:00,
2013-03-02 00:45:00,46.4,44.6,30.06,SSE,158,3.8,6.3,93,0.00,,,0.00,WUHU216HW,2013-03-02 08:45:00,
2013-03-02 00:50:00,46.8,44.9,30.06,SSE,158,4.3,5.6,93,0.00,,,0.00,WUHU216HW,2013-03-02 08:50:00,
2013-03-02 00:55:00,46.8,44.9,30.06,South,180,3.4,5.4,93,0.00,,,0.00,WUHU216HW,2013-03-02 08:55:00,
2013-03-02 01:00:00,46.8,44.9,30.07,SSE,158,4.9,6.0,93,0.00,,,0.00,WUHU216HW,2013-03-02 09:00:00,
2013-03-02 01:05:00,47.0,45.1,30.06,SE,135,7.4,7.4,93,0.00,,,0.00,WUHU216HW,2013-03-02 09:05:00,
2013-03-02 01:10:00,47.2,45.3,30.06,SSE,158,5.4,7.4,93,0.00,,,0.00,WUHU216HW,2013-03-02 09:10:00,
2013-03-02 01:15:00,47.2,45.3,30.05,SSE,158,4.3,7.4,93,0.00,,,0.00,WUHU216HW,2013-03-02 09:15:00,
2013-03-02 01:20:00,47.2,45.3,30.06,SSW,203,3.6,6.7,93,0.00,,,0.00,WUHU216HW,2013-03-02 09:20:00,
2013-03-02 01:25:00,47.3,45.5,30.05,South,180,2.9,6.7,93,0.00,,,0.00,WUHU216HW,2013-03-02 09:25:00,
2013-03-02 01:30:00,47.3,45.5,30.05,SSE,158,4.7,4.7,93,0.00,,,0.00,WUHU216HW,2013-03-02 09:30:00,
2013-03-02 01:35:00,47.3,45.5,30.05,SSE,158,5.8,5.8,93,0.00,,,0.00,WUHU216HW,2013-03-02 09:35:00,
2013-03-02 01:40:00,47.2,45.3,30.05,SE,135,4.9,6.0,93,0.00,,,0.00,WUHU216HW,2013-03-02 09:40:00,
2013-03-02 01:45:00,47.2,45.3,30.05,South,180,3.4,6.0,93,0.00,,,0.00,WUHU216HW,2013-03-02 09:45:00,
2013-03-02 01:50:00,47.3,45.5,30.05,SSW,203,3.1,4.9,93,0.00,,,0.00,WUHU216HW,2013-03-02 09:50:00,
2013-03-02 01:55:00,47.3,45.5,30.05,SSE,158,2.9,4.9,93,0.00,,,0.00,WUHU216HW,2013-03-02 09:55:00,
2013-03-02 02:00:00,47.3,45.5,30.05,South,180,3.6,3.8,93,0.00,,,0.00,WUHU216HW,2013-03-02 10:00:00,
2013-03-02 02:05:00,47.3,45.2,30.05,SW,225,0.7,3.8,92,0.00,,,0.00,WUHU216HW,2013-03-02 10:05:00,
2013-03-02 02:11:00,47.2,45.3,30.05,WSW,248,0.4,3.6,93,0.00,,,0.00,WUHU216HW,2013-03-02 10:11:00,
2013-03-02 02:16:00,47.2,45.0,30.04,ENE,68,1.3,1.8,92,0.00,,,0.00,WUHU216HW,2013-03-02 10:16:00,
2013-03-02 02:21:00,47.2,45.3,30.04,ENE,68,0.0,1.3,93,0.00,,,0.00,WUHU216HW,2013-03-02 10:21:00,
2013-03-02 02:26:00,47.2,45.3,30.04,SSE,158,1.8,1.8,93,0.00,,,0.00,WUHU216HW,2013-03-02 10:26:00,
2013-03-02 02:31:00,47.2,45.3,30.04,SSE,158,3.1,3.1,93,0.00,,,0.00,WUHU216HW,2013-03-02 10:31:00,
2013-03-02 02:36:00,47.2,45.3,30.03,SSE,158,3.8,3.8,93,0.00,,,0.00,WUHU216HW,2013-03-02 10:36:00,
2013-03-02 02:41:00,47.2,45.3,30.03,SSE,158,4.3,5.1,93,0.00,,,0.00,WUHU216HW,2013-03-02 10:41:00,
2013-03-02 02:46:00,47.3,45.5,30.03,SSE,158,4.9,5.1,93,0.00,,,0.00,WUHU216HW,2013-03-02 10:46:00,
2013-03-02 02:51:00,47.3,45.5,30.03,SSE,158,4.9,5.8,93,0.00,,,0.00,WUHU216HW,2013-03-02 10:51:00,
2013-03-02 02:56:00,47.5,45.6,30.03,SSE,158,5.4,5.8,93,0.00,,,0.00,WUHU216HW,2013-03-02 10:56:00,
2013-03-02 03:01:00,47.5,45.6,30.02,South,180,4.9,5.4,93,0.00,,,0.00,WUHU216HW,2013-03-02 11:01:00,
2013-03-02 03:06:00,47.7,45.8,30.02,SSE,158,5.1,5.4,93,0.00,,,0.00,WUHU216HW,2013-03-02 11:06:00,
2013-03-02 03:11:00,47.7,45.8,30.01,SE,135,6.3,6.3,93,0.00,,,0.00,WUHU216HW,2013-03-02 11:11:00,
2013-03-02 03:16:00,47.5,45.6,30.01,SSE,158,5.4,6.3,93,0.00,,,0.00,WUHU216HW,2013-03-02 11:16:00,
2013-03-02 03:21:00,47.5,45.6,30.01,South,180,3.6,6.3,93,0.00,,,0.00,WUHU216HW,2013-03-02 11:21:00,
2013-03-02 03:26:00,47.5,45.6,30.01,SW,225,0.7,5.4,93,0.00,,,0.00,WUHU216HW,2013-03-02 11:26:00,
2013-03-02 03:31:00,47.5,45.6,30.01,NW,315,0.0,3.6,93,0.00,,,0.00,WUHU216HW,2013-03-02 11:31:00,
2013-03-02 03:36:00,47.5,45.6,30.01,NW,315,0.0,0.9,93,0.00,,,0.00,WUHU216HW,2013-03-02 11:36:00,
2013-03-02 03:41:00,47.3,45.5,30.01,South,180,0.2,1.6,93,0.00,,,0.00,WUHU216HW,2013-03-02 11:41:00,
2013-03-02 03:46:00,47.3,45.5,30.00,SSW,203,1.1,2.0,93,0.00,,,0.00,WUHU216HW,2013-03-02 11:46:00,
2013-03-02 03:51:00,47.3,45.5,30.00,South,180,2.9,3.6,93,0.00,,,0.00,WUHU216HW,2013-03-02 11:51:00,
2013-03-02 03:56:00,47.3,45.5,30.00,SSE,158,4.0,5.4,93,0.00,,,0.00,WUHU216HW,2013-03-02 11:56:00,
2013-03-02 04:01:00,47.3,45.5,30.00,SSE,158,5.8,6.3,93,0.00,,,0.00,WUHU216HW,2013-03-02 12:01:00,
2013-03-02 04:06:00,47.3,45.5,29.99,SE,135,6.3,7.2,93,0.00,,,0.00,WUHU216HW,2013-03-02 12:06:00,
2013-03-02 04:11:00,47.2,45.3,30.00,SSE,158,4.5,7.2,93,0.00,,,0.00,WUHU216HW,2013-03-02 12:11:00,
2013-03-02 04:16:00,47.2,45.3,29.99,SSE,158,4.9,6.3,93,0.00,,,0.00,WUHU216HW,2013-03-02 12:16:00,
2013-03-02 04:21:00,47.3,45.5,30.00,SSE,158,7.8,7.8,93,0.00,,,0.00,WUHU216HW,2013-03-02 12:21:00,
2013-03-02 04:26:00,47.3,45.5,30.00,SSE,158,5.6,7.8,93,0.00,,,0.00,WUHU216HW,2013-03-02 12:26:00,
2013-03-02 04:31:00,47.3,45.5,29.99,SE,135,3.6,7.8,93,0.00,,,0.00,WUHU216HW,2013-03-02 12:31:00,
2013-03-02 04:36:00,47.2,45.3,29.99,South,180,3.8,5.8,93,0.00,,,0.00,WUHU216HW,2013-03-02 12:36:00,
2013-03-02 04:41:00,47.2,45.3,29.99,SSW,203,0.7,4.0,93,0.00,,,0.00,WUHU216HW,2013-03-02 12:41:00,
2013-03-02 04:46:00,47.2,45.3,30.00,South,180,1.8,4.0,93,0.00,,,0.00,WUHU216HW,2013-03-02 12:46:00,
2013-03-02 04:51:00,47.2,45.3,30.00,SSE,158,2.5,2.5,93,0.00,,,0.00,WUHU216HW,2013-03-02 12:51:00,
2013-03-02 04:56:00,47.2,45.3,29.99,South,180,3.6,3.6,93,0.00,,,0.00,WUHU216HW,2013-03-02 12:56:00,
2013-03-02 05:01:00,47.0,45.1,29.99,South,180,1.1,3.6,93,0.00,,,0.00,WUHU216HW,2013-03-02 13:01:00,
2013-03-02 05:06:00,46.8,44.9,29.99,SW,225,0.9,3.6,93,0.00,,,0.00,WUHU216HW,2013-03-02 13:06:00,
2013-03-02 05:11:00,46.8,44.9,29.99,SSW,203,2.9,3.1,93,0.00,,,0.00,WUHU216HW,2013-03-02 13:11:00,
2013-03-02 05:16:00,46.6,44.7,29.99,SW,225,2.0,3.1,93,0.00,,,0.00,WUHU216HW,2013-03-02 13:16:00,
2013-03-02 05:21:00,46.6,44.7,29.99,South,180,2.5,2.9,93,0.00,,,0.00,WUHU216HW,2013-03-02 13:21:00,
2013-03-02 05:26:00,46.6,44.7,29.99,SSW,203,0.2,3.1,93,0.00,,,0.00,WUHU216HW,2013-03-02 13:26:00,
2013-03-02 05:31:00,46.6,44.7,29.98,SSW,203,0.0,3.1,93,0.00,,,0.00,WUHU216HW,2013-03-02 13:31:00,
2013-03-02 05:36:00,46.4,44.6,29.98,ENE,68,0.0,1.3,93,0.00,,,0.00,WUHU216HW,2013-03-02 13:36:00,
2013-03-02 05:41:00,46.3,44.4,29.98,South,180,2.5,2.9,93,0.00,,,0.00,WUHU216HW,2013-03-02 13:41:00,
2013-03-02 05:46:00,46.3,44.4,29.98,South,180,1.3,2.9,93,0.00,,,0.00,WUHU216HW,2013-03-02 13:46:00,
2013-03-02 05:51:00,46.3,44.4,29.98,SSE,158,1.1,2.5,93,0.00,,,0.00,WUHU216HW,2013-03-02 13:51:00,
2013-03-02 05:56:00,46.3,44.4,29.98,North,0,1.3,2.5,93,0.00,,,0.00,WUHU216HW,2013-03-02 13:56:00,
2013-03-02 06:01:00,46.1,44.2,29.98,NW,315,0.2,2.2,93,0.00,,,0.00,WUHU216HW,2013-03-02 14:01:00,
2013-03-02 06:06:00,45.9,44.0,29.98,SSW,203,0.0,1.3,93,0.00,,,0.00,WUHU216HW,2013-03-02 14:06:00,
2013-03-02 06:11:00,45.7,43.6,29.98,SSW,203,0.2,0.9,92,0.00,,,0.00,WUHU216HW,2013-03-02 14:11:00,
2013-03-02 06:16:00,45.7,43.6,29.98,SE,135,2.0,2.2,92,0.00,,,0.00,WUHU216HW,2013-03-02 14:16:00,
2013-03-02 06:21:00,45.7,43.6,29.98,SE,135,4.7,4.7,92,0.00,,,0.00,WUHU216HW,2013-03-02 14:21:00,
2013-03-02 06:26:00,45.7,43.6,29.98,ESE,113,5.4,5.4,92,0.00,,,0.00,WUHU216HW,2013-03-02 14:26:00,
2013-03-02 06:31:00,45.7,43.6,29.98,ESE,113,5.1,6.0,92,0.00,,,0.00,WUHU216HW,2013-03-02 14:31:00,
2013-03-02 06:36:00,45.7,43.6,29.98,South,180,2.2,6.0,92,0.00,,,0.00,WUHU216HW,2013-03-02 14:36:00,
2013-03-02 06:41:00,45.7,43.6,29.98,SSE,158,2.7,5.1,92,0.00,,,0.00,WUHU216HW,2013-03-02 14:41:00,
2013-03-02 06:46:00,45.7,43.6,29.98,SSE,158,4.7,4.9,92,0.00,,,0.00,WUHU216HW,2013-03-02 14:46:00,
2013-03-02 06:51:00,45.5,43.7,29.97,SSE,158,2.9,4.9,93,0.00,,,0.00,WUHU216HW,2013-03-02 14:51:00,
2013-03-02 06:56:00,45.7,43.8,29.98,SSE,158,5.4,5.8,93,0.00,,,0.00,WUHU216HW,2013-03-02 14:56:00,
2013-03-02 07:01:00,45.7,43.8,29.97,SSE,158,6.3,6.9,93,0.00,,,0.00,WUHU216HW,2013-03-02 15:01:00,
2013-03-02 07:06:00,45.9,44.3,29.97,SSE,158,3.1,6.9,94,0.00,,,0.00,WUHU216HW,2013-03-02 15:06:00,
2013-03-02 07:11:00,46.1,44.5,29.97,SW,225,1.8,6.3,94,0.00,,,0.00,WUHU216HW,2013-03-02 15:11:00,
2013-03-02 07:16:00,46.1,44.5,29.97,South,180,0.2,3.1,94,0.00,,,0.00,WUHU216HW,2013-03-02 15:16:00,
2013-03-02 07:21:00,46.1,44.5,29.97,SSE,158,4.5,4.5,94,0.00,,,0.00,WUHU216HW,2013-03-02 15:21:00,
2013-03-02 07:26:00,46.1,44.5,29.97,SSE,158,4.7,6.9,94,0.00,,,0.00,WUHU216HW,2013-03-02 15:26:00,
2013-03-02 07:31:00,46.4,44.8,29.97,SSE,158,2.0,6.9,94,0.00,,,0.00,WUHU216HW,2013-03-02 15:31:00,
2013-03-02 07:36:00,46.4,44.8,29.97,South,180,2.2,4.7,94,0.00,,,0.00,WUHU216HW,2013-03-02 15:36:00,
2013-03-02 07:41:00,46.4,44.6,29.97,WSW,248,1.6,4.0,93,0.00,,,0.00,WUHU216HW,2013-03-02 15:41:00,
2013-03-02 07:46:00,46.4,44.8,29.97,West,270,0.0,2.2,94,0.00,,,0.00,WUHU216HW,2013-03-02 15:46:00,
2013-03-02 07:51:00,46.3,44.6,29.96,NNE,23,0.2,1.8,94,0.00,,,0.00,WUHU216HW,2013-03-02 15:51:00,
2013-03-02 07:56:00,46.3,44.6,29.96,NNE,23,0.0,1.1,94,0.00,,,0.00,WUHU216HW,2013-03-02 15:56:00,
2013-03-02 08:01:00,46.4,44.8,29.96,SW,225,1.1,1.3,94,0.00,,,0.00,WUHU216HW,2013-03-02 16:01:00,
2013-03-02 08:06:00,46.6,45.0,29.96,SW,225,1.1,1.8,94,0.00,,,0.00,WUHU216HW,2013-03-02 16:06:00,
2013-03-02 08:11:00,46.6,45.0,29.96,SSW,203,1.1,1.8,94,0.00,,,0.00,WUHU216HW,2013-03-02 16:11:00,
2013-03-02 08:16:00,46.8,45.2,29.96,South,180,3.4,3.4,94,0.00,,,0.00,WUHU216HW,2013-03-02 16:16:00,
2013-03-02 08:21:00,47.0,45.4,29.96,South,180,4.5,4.5,94,0.00,,,0.00,WUHU216HW,2013-03-02 16:21:00,
2013-03-02 08:26:00,47.2,45.5,29.96,SSW,203,3.6,4.7,94,0.00,,,0.00,WUHU216HW,2013-03-02 16:26:00,
2013-03-02 08:31:00,47.5,45.9,29.96,SSE,158,5.4,5.6,94,0.00,,,0.00,WUHU216HW,2013-03-02 16:31:00,
2013-03-02 08:36:00,47.7,46.1,29.96,South,180,4.7,5.6,94,0.00,,,0.00,WUHU216HW,2013-03-02 16:36:00,
2013-03-02 08:41:00,47.9,46.3,29.96,SE,135,6.5,6.9,94,0.00,,,0.00,WUHU216HW,2013-03-02 16:41:00,
2013-03-02 08:46:00,48.1,46.4,29.96,SE,135,6.3,8.3,94,0.00,,,0.00,WUHU216HW,2013-03-02 16:46:00,
2013-03-02 08:51:00,48.2,46.6,29.95,SE,135,7.2,8.3,94,0.00,,,0.00,WUHU216HW,2013-03-02 16:51:00,
2013-03-02 08:56:00,48.6,46.7,29.95,SE,135,8.3,8.9,93,0.00,,,0.00,WUHU216HW,2013-03-02 16:56:00,
2013-03-02 09:01:00,49.0,47.0,29.95,SE,135,6.9,8.9,93,0.00,,,0.00,WUHU216HW,2013-03-02 17:01:00,
2013-03-02 09:06:00,49.1,47.2,29.95,SE,135,6.9,8.5,93,0.00,,,0.00,WUHU216HW,2013-03-02 17:06:00,
2013-03-02 09:11:00,49.3,47.1,29.95,SE,135,6.5,7.6,92,0.00,,,0.00,WUHU216HW,2013-03-02 17:11:00,
2013-03-02 09:16:00,49.3,47.1,29.95,SE,135,5.6,7.6,92,0.00,,,0.00,WUHU216HW,2013-03-02 17:16:00,
2013-03-02 09:21:00,49.7,47.4,29.95,SE,135,5.6,7.6,92,0.00,,,0.00,WUHU216HW,2013-03-02 17:21:00,
2013-03-02 09:26:00,49.7,47.4,29.96,SSE,158,4.5,7.4,92,0.00,,,0.00,WUHU216HW,2013-03-02 17:26:00,
2013-03-02 09:31:00,49.9,47.6,29.96,SE,135,4.9,6.3,92,0.00,,,0.00,WUHU216HW,2013-03-02 17:31:00,
2013-03-02 09:36:00,50.0,47.4,29.95,SW,225,6.0,7.4,91,0.00,,,0.00,WUHU216HW,2013-03-02 17:36:00,
2013-03-02 09:41:00,50.4,47.8,29.96,SSW,203,5.4,8.5,91,0.00,,,0.00,WUHU216HW,2013-03-02 17:41:00,
2013-03-02 09:46:00,50.6,48.0,29.96,SSE,158,6.3,8.5,91,0.00,,,0.00,WUHU216HW,2013-03-02 17:46:00,
2013-03-02 09:51:00,50.8,47.9,29.96,South,180,1.8,7.2,90,0.00,,,0.00,WUHU216HW,2013-03-02 17:51:00,
2013-03-02 09:56:00,50.9,47.8,29.95,SE,135,1.1,7.6,89,0.00,,,0.00,WUHU216HW,2013-03-02 17:56:00,
2013-03-02 10:01:00,51.1,48.0,29.96,SE,135,1.3,7.6,89,0.00,,,0.00,WUHU216HW,2013-03-02 18:01:00,
2013-03-02 10:06:00,51.1,48.2,29.95,SE,135,2.9,4.0,90,0.00,,,0.00,WUHU216HW,2013-03-02 18:06:00,
2013-03-02 10:11:00,51.3,48.4,29.95,SSE,158,4.0,4.5,90,0.00,,,0.00,WUHU216HW,2013-03-02 18:11:00,
2013-03-02 10:16:00,51.5,48.3,29.94,SSE,158,5.1,9.4,89,0.00,,,0.00,WUHU216HW,2013-03-02 18:16:00,
2013-03-02 10:21:00,51.7,48.5,29.94,SSE,158,6.7,9.4,89,0.00,,,0.00,WUHU216HW,2013-03-02 18:21:00,
2013-03-02 10:26:00,52.0,48.9,29.94,SE,135,7.6,9.4,89,0.00,,,0.00,WUHU216HW,2013-03-02 18:26:00,
2013-03-02 10:31:00,52.2,48.7,29.94,SSE,158,6.9,9.8,88,0.00,,,0.00,WUHU216HW,2013-03-02 18:31:00,
2013-03-02 10:36:00,52.2,48.7,29.94,SE,135,6.3,9.8,88,0.00,,,0.00,WUHU216HW,2013-03-02 18:36:00,
2013-03-02 10:41:00,52.4,48.6,29.94,SE,135,6.3,10.1,87,0.00,,,0.00,WUHU216HW,2013-03-02 18:41:00,
2013-03-02 10:46:00,52.6,49.1,29.93,South,180,6.0,10.1,88,0.00,,,0.00,WUHU216HW,2013-03-02 18:46:00,
2013-03-02 10:51:00,52.6,49.1,29.94,South,180,1.8,7.8,88,0.00,,,0.00,WUHU216HW,2013-03-02 18:51:00,
2013-03-02 10:56:00,52.7,49.0,29.94,SE,135,7.8,8.5,87,0.00,,,0.00,WUHU216HW,2013-03-02 18:56:00,
2013-03-02 11:01:00,52.6,48.4,29.94,SSE,158,5.6,8.5,86,0.00,,,0.00,WUHU216HW,2013-03-02 19:01:00,
2013-03-02 11:06:00,52.7,49.0,29.94,SSE,158,5.1,9.2,87,0.00,,,0.00,WUHU216HW,2013-03-02 19:06:00,
2013-03-02 11:11:00,52.6,48.8,29.94,SSE,158,8.1,9.4,87,0.00,,,0.00,WUHU216HW,2013-03-02 19:11:00,
2013-03-02 11:16:00,52.6,48.8,29.94,SE,135,8.5,9.4,87,0.00,,,0.00,WUHU216HW,2013-03-02 19:16:00,
2013-03-02 11:21:00,52.6,48.8,29.94,SSE,158,6.7,8.9,87,0.00,,,0.00,WUHU216HW,2013-03-02 19:21:00,
2013-03-02 11:26:00,52.7,49.0,29.94,SSE,158,4.3,8.9,87,0.00,,,0.00,WUHU216HW,2013-03-02 19:26:00,
2013-03-02 11:31:00,52.7,49.0,29.94,SSE,158,6.9,8.7,87,0.00,,,0.00,WUHU216HW,2013-03-02 19:31:00,
2013-03-02 11:36:00,52.7,48.6,29.94,SSE,158,4.7,7.6,86,0.00,,,0.00,WUHU216HW,2013-03-02 19:36:00,
2013-03-02 11:41:00,52.9,48.8,29.93,SE,135,7.8,9.2,86,0.00,,,0.00,WUHU216HW,2013-03-02 19:41:00,
2013-03-02 11:46:00,53.1,49.0,29.93,South,180,6.0,9.2,86,0.00,,,0.00,WUHU216HW,2013-03-02 19:46:00,
2013-03-02 11:51:00,53.3,48.6,29.93,South,180,8.5,11.9,84,0.00,,,0.00,WUHU216HW,2013-03-02 19:51:00,
2013-03-02 11:56:00,53.3,48.9,29.93,SE,135,8.7,11.9,85,0.00,,,0.00,WUHU216HW,2013-03-02 19:56:00,
2013-03-02 12:01:00,53.5,48.8,29.93,SE,135,6.9,11.4,84,0.00,,,0.00,WUHU216HW,2013-03-02 20:01:00,
2013-03-02 12:06:00,53.6,49.0,29.93,SE,135,6.7,11.4,84,0.00,,,0.00,WUHU216HW,2013-03-02 20:06:00,
2013-03-02 12:11:00,54.0,49.2,29.93,ESE,113,6.3,10.5,84,0.00,,,0.00,WUHU216HW,2013-03-02 20:11:00,
2013-03-02 12:16:00,54.0,49.0,29.92,SSE,158,5.1,10.3,83,0.00,,,0.00,WUHU216HW,2013-03-02 20:16:00,
2013-03-02 12:21:00,54.4,49.3,29.92,SSE,158,11.6,12.8,83,0.00,,,0.00,WUHU216HW,2013-03-02 20:21:00,
2013-03-02 12:26:00,54.5,49.1,29.92,SSE,158,7.6,12.8,82,0.00,,,0.00,WUHU216HW,2013-03-02 20:26:00,
2013-03-02 12:31:00,54.4,48.7,29.92,SSW,203,5.6,14.1,81,0.00,,,0.00,WUHU216HW,2013-03-02 20:31:00,
2013-03-02 12:36:00,54.4,48.7,29.92,SE,135,11.2,14.1,81,0.00,,,0.00,WUHU216HW,2013-03-02 20:36:00,
2013-03-02 12:41:00,54.2,48.2,29.92,SSW,203,10.7,13.4,80,0.00,,,0.00,WUHU216HW,2013-03-02 20:41:00,
2013-03-02 12:46:00,54.2,48.5,29.92,SSE,158,7.6,13.4,81,0.00,,,0.00,WUHU216HW,2013-03-02 20:46:00,
2013-03-02 12:51:00,54.0,48.3,29.91,South,180,2.7,10.7,81,0.00,,,0.00,WUHU216HW,2013-03-02 20:51:00,
2013-03-02 12:56:00,54.0,48.3,29.91,SSW,203,4.0,6.5,81,0.00,,,0.00,WUHU216HW,2013-03-02 20:56:00,
2013-03-02 13:01:00,54.0,48.3,29.91,SSE,158,6.7,6.9,81,0.00,,,0.00,WUHU216HW,2013-03-02 21:01:00,
2013-03-02 13:06:00,54.2,48.8,29.90,SSE,158,9.8,10.5,82,0.00,,,0.00,WUHU216HW,2013-03-02 21:06:00,
2013-03-02 13:11:00,54.2,48.8,29.90,SSE,158,10.5,10.5,82,0.00,,,0.00,WUHU216HW,2013-03-02 21:11:00,
2013-03-02 13:16:00,54.2,48.8,29.90,SE,135,7.6,10.5,82,0.00,,,0.00,WUHU216HW,2013-03-02 21:16:00,
2013-03-02 13:21:00,54.0,48.6,29.90,SSE,158,11.0,13.9,82,0.00,,,0.00,WUHU216HW,2013-03-02 21:21:00,
2013-03-02 13:26:00,54.0,48.6,29.89,South,180,8.3,13.9,82,0.00,,,0.00,WUHU216HW,2013-03-02 21:26:00,
2013-03-02 13:31:00,53.6,48.3,29.90,SSE,158,10.7,12.8,82,0.00,,,0.00,WUHU216HW,2013-03-02 21:31:00,
2013-03-02 13:36:00,53.6,48.3,29.90,SSE,158,9.2,13.4,82,0.00,,,0.00,WUHU216HW,2013-03-02 21:36:00,
2013-03-02 13:41:00,53.5,48.4,29.90,South,180,7.8,13.4,83,0.00,,,0.00,WUHU216HW,2013-03-02 21:41:00,
2013-03-02 13:46:00,53.1,48.1,29.90,SE,135,3.6,11.2,83,0.01,,,0.01,WUHU216HW,2013-03-02 21:46:00,
2013-03-02 13:51:00,53.1,48.4,29.90,South,180,3.1,10.1,84,0.01,,,0.01,WUHU216HW,2013-03-02 21:51:00,
2013-03-02 13:56:00,52.9,48.5,29.90,SE,135,5.1,7.8,85,0.02,,,0.03,WUHU216HW,2013-03-02 21:56:00,
2013-03-02 14:01:00,53.1,49.0,29.89,SE,135,4.0,7.4,86,0.02,,,0.03,WUHU216HW,2013-03-02 22:01:00,
2013-03-02 14:06:00,53.1,49.3,29.89,SE,135,6.3,8.9,87,0.02,,,0.03,WUHU216HW,2013-03-02 22:06:00,
2013-03-02 14:11:00,53.3,49.5,29.89,SE,135,7.6,8.9,87,0.02,,,0.03,WUHU216HW,2013-03-02 22:11:00,
2013-03-02 14:16:00,53.1,49.3,29.89,SSE,158,5.4,8.3,87,0.02,,,0.03,WUHU216HW,2013-03-02 22:16:00,
2013-03-02 14:21:00,53.3,49.5,29.89,SE,135,8.3,8.3,87,0.02,,,0.03,WUHU216HW,2013-03-02 22:21:00,
2013-03-02 14:26:00,53.3,49.8,29.89,SSE,158,5.6,8.9,88,0.02,,,0.03,WUHU216HW,2013-03-02 22:26:00,
2013-03-02 14:31:00,53.5,50.0,29.89,SE,135,6.3,8.9,88,0.02,,,0.03,WUHU216HW,2013-03-02 22:31:00,
2013-03-02 14:36:00,53.6,50.1,29.89,SSE,158,8.1,8.1,88,0.02,,,0.03,WUHU216HW,2013-03-02 22:36:00,
2013-03-02 14:41:00,53.8,50.1,29.89,South,180,5.4,8.1,87,0.02,,,0.03,WUHU216HW,2013-03-02 22:41:00,
2013-03-02 14:46:00,54.0,50.2,29.89,SSW,203,1.6,5.6,87,0.01,,,0.03,WUHU216HW,2013-03-02 22:46:00,
2013-03-02 14:51:00,54.0,49.2,29.89,NNW,338,2.5,5.6,84,0.01,,,0.03,WUHU216HW,2013-03-02 22:51:00,
2013-03-02 14:56:00,54.0,47.4,29.89,WNW,293,6.3,9.2,78,0.00,,,0.03,WUHU216HW,2013-03-02 22:56:00,
2013-03-02 15:01:00,53.8,47.9,29.90,WSW,248,5.4,9.2,80,0.00,,,0.03,WUHU216HW,2013-03-02 23:01:00,
2013-03-02 15:06:00,53.5,47.2,29.90,NNW,338,5.8,7.8,79,0.00,,,0.03,WUHU216HW,2013-03-02 23:06:00,
2013-03-02 15:11:00,53.5,47.8,29.90,WSW,248,3.6,7.4,81,0.00,,,0.03,WUHU216HW,2013-03-02 23:11:00,
2013-03-02 15:16:00,53.1,47.8,29.90,WSW,248,3.1,7.4,82,0.00,,,0.03,WUHU216HW,2013-03-02 23:16:00,
2013-03-02 15:21:00,52.9,47.6,29.90,WSW,248,3.1,4.5,82,0.00,,,0.03,WUHU216HW,2013-03-02 23:21:00,
2013-03-02 15:26:00,52.9,47.9,29.90,NNW,338,3.4,4.5,83,0.00,,,0.03,WUHU216HW,2013-03-02 23:26:00,
2013-03-02 15:31:00,52.6,47.3,29.90,NW,315,10.1,10.1,82,0.00,,,0.03,WUHU216HW,2013-03-02 23:31:00,
2013-03-02 15:36:00,51.7,46.0,29.91,NNW,338,12.1,12.1,81,0.00,,,0.03,WUHU216HW,2013-03-02 23:36:00,
2013-03-02 15:41:00,50.0,44.4,29.91,NW,315,7.8,14.3,81,0.00,,,0.03,WUHU216HW,2013-03-02 23:41:00,
2013-03-02 15:46:00,49.0,43.7,29.92,NW,315,12.1,14.3,82,0.00,,,0.03,WUHU216HW,2013-03-02 23:46:00,
2013-03-02 15:51:00,48.6,43.3,29.92,NW,315,8.5,13.6,82,0.00,,,0.03,WUHU216HW,2013-03-02 23:51:00,
2013-03-02 15:56:00,48.4,43.1,29.92,NNW,338,8.9,14.5,82,0.00,,,0.03,WUHU216HW,2013-03-02 23:56:00,
2013-03-02 16:01:00,48.4,42.9,29.92,WNW,293,6.3,14.5,81,0.00,,,0.03,WUHU216HW,2013-03-03 00:01:00,
2013-03-02 16:06:00,48.4,42.5,29.92,NNW,338,7.4,12.1,80,0.00,,,0.03,WUHU216HW,2013-03-03 00:06:00,
2013-03-02 16:11:00,48.4,42.5,29.92,NW,315,5.6,12.1,80,0.00,,,0.03,WUHU216HW,2013-03-03 00:11:00,
2013-03-02 16:16:00,48.4,42.1,29.92,NW,315,11.0,12.8,79,0.00,,,0.03,WUHU216HW,2013-03-03 00:16:00,
2013-03-02 16:21:00,48.4,42.1,29.92,NW,315,6.7,13.4,79,0.00,,,0.03,WUHU216HW,2013-03-03 00:21:00,
2013-03-02 16:26:00,48.2,41.6,29.93,NW,315,9.8,13.4,78,0.00,,,0.03,WUHU216HW,2013-03-03 00:26:00,
2013-03-02 16:31:00,48.1,41.8,29.93,NW,315,8.5,10.5,79,0.00,,,0.03,WUHU216HW,2013-03-03 00:31:00,
2013-03-02 16:36:00,47.9,41.3,29.93,NNW,338,5.4,11.0,78,0.00,,,0.03,WUHU216HW,2013-03-03 00:36:00,
2013-03-02 16:41:00,47.5,41.3,29.93,NW,315,5.1,11.0,79,0.00,,,0.03,WUHU216HW,2013-03-03 00:41:00,
2013-03-02 16:46:00,47.2,41.3,29.93,NW,315,8.7,12.1,80,0.00,,,0.03,WUHU216HW,2013-03-03 00:46:00,
2013-03-02 16:51:00,47.2,41.3,29.93,WNW,293,6.7,12.1,80,0.00,,,0.03,WUHU216HW,2013-03-03 00:51:00,
2013-03-02 16:56:00,46.8,40.7,29.94,NNW,338,4.0,10.5,79,0.00,,,0.03,WUHU216HW,2013-03-03 00:56:00,
2013-03-02 17:01:00,46.6,40.9,29.94,NNW,338,9.4,9.8,80,0.00,,,0.03,WUHU216HW,2013-03-03 01:01:00,
2013-03-02 17:06:00,46.6,40.5,29.94,NW,315,6.0,10.5,79,0.00,,,0.03,WUHU216HW,2013-03-03 01:06:00,
2013-03-02 17:11:00,46.4,40.0,29.94,NNW,338,5.4,10.5,78,0.00,,,0.03,WUHU216HW,2013-03-03 01:11:00,
2013-03-02 17:16:00,46.4,40.3,29.95,West,270,3.4,7.8,79,0.00,,,0.03,WUHU216HW,2013-03-03 01:16:00,
2013-03-02 17:21:00,46.4,40.3,29.95,NNW,338,7.8,8.5,79,0.00,,,0.03,WUHU216HW,2013-03-03 01:21:00,
2013-03-02 17:26:00,46.3,40.5,29.95,NNE,23,7.6,8.5,80,0.00,,,0.03,WUHU216HW,2013-03-03 01:26:00,
2013-03-02 17:31:00,46.1,40.3,29.95,NNE,23,3.4,7.8,80,0.00,,,0.03,WUHU216HW,2013-03-03 01:31:00,
2013-03-02 17:36:00,45.9,40.4,29.95,North,0,5.8,9.6,81,0.00,,,0.03,WUHU216HW,2013-03-03 01:36:00,
2013-03-02 17:41:00,45.9,40.4,29.95,NNW,338,5.8,9.6,81,0.00,,,0.03,WUHU216HW,2013-03-03 01:41:00,
2013-03-02 17:46:00,45.7,40.2,29.95,NNW,338,5.4,7.6,81,0.00,,,0.03,WUHU216HW,2013-03-03 01:46:00,
2013-03-02 17:51:00,45.7,40.2,29.95,NNW,338,4.7,7.6,81,0.00,,,0.03,WUHU216HW,2013-03-03 01:51:00,
2013-03-02 17:56:00,45.7,40.0,29.95,NW,315,4.5,7.4,80,0.00,,,0.03,WUHU216HW,2013-03-03 01:56:00,
2013-03-02 18:01:00,45.7,40.0,29.95,NNW,338,4.7,7.4,80,0.00,,,0.03,WUHU216HW,2013-03-03 02:01:00,
2013-03-02 18:06:00,45.7,40.2,29.95,NW,315,7.6,7.6,81,0.00,,,0.03,WUHU216HW,2013-03-03 02:06:00,
2013-03-02 18:11:00,45.5,40.1,29.96,NNW,338,4.0,7.6,81,0.00,,,0.03,WUHU216HW,2013-03-03 02:11:00,
2013-03-02 18:16:00,45.4,40.2,29.96,NNW,338,4.3,7.6,82,0.00,,,0.03,WUHU216HW,2013-03-03 02:16:00,
2013-03-02 18:21:00,45.0,40.1,29.96,WNW,293,5.1,6.5,83,0.00,,,0.03,WUHU216HW,2013-03-03 02:21:00,
2013-03-02 18:26:00,45.0,40.1,29.96,NNW,338,5.4,8.3,83,0.00,,,0.03,WUHU216HW,2013-03-03 02:26:00,
2013-03-02 18:31:00,44.8,39.7,29.96,WNW,293,8.1,8.3,82,0.00,,,0.03,WUHU216HW,2013-03-03 02:31:00,
2013-03-02 18:36:00,44.8,40.0,29.97,NW,315,3.6,8.1,83,0.00,,,0.03,WUHU216HW,2013-03-03 02:36:00,
2013-03-02 18:41:00,44.6,39.5,29.96,NW,315,4.7,6.9,82,0.00,,,0.03,WUHU216HW,2013-03-03 02:41:00,
2013-03-02 18:46:00,44.6,39.5,29.97,NNW,338,6.7,6.9,82,0.00,,,0.03,WUHU216HW,2013-03-03 02:46:00,
2013-03-02 18:51:00,44.6,39.5,29.97,NW,315,5.4,7.6,82,0.00,,,0.03,WUHU216HW,2013-03-03 02:51:00,
2013-03-02 18:56:00,44.6,39.8,29.97,NNW,338,6.0,7.6,83,0.00,,,0.03,WUHU216HW,2013-03-03 02:56:00,
2013-03-02 19:01:00,44.5,39.6,29.97,WNW,293,4.7,7.6,83,0.00,,,0.03,WUHU216HW,2013-03-03 03:01:00,
2013-03-02 19:06:00,44.3,39.8,29.97,WNW,293,4.7,7.4,84,0.00,,,0.03,WUHU216HW,2013-03-03 03:06:00,
2013-03-02 19:11:00,43.9,39.1,29.97,NW,315,6.3,8.5,83,0.00,,,0.03,WUHU216HW,2013-03-03 03:11:00,
2013-03-02 19:16:00,43.9,38.8,29.98,NNW,338,5.4,8.5,82,0.00,,,0.03,WUHU216HW,2013-03-03 03:16:00,
2013-03-02 19:21:00,43.7,38.6,29.97,WNW,293,1.8,8.1,82,0.00,,,0.03,WUHU216HW,2013-03-03 03:21:00,
2013-03-02 19:26:00,43.6,38.4,29.98,SW,225,2.7,6.9,82,0.00,,,0.03,WUHU216HW,2013-03-03 03:26:00,
2013-03-02 19:31:00,43.6,38.4,29.97,West,270,1.6,3.6,82,0.00,,,0.03,WUHU216HW,2013-03-03 03:31:00,
2013-03-02 19:36:00,43.2,38.1,29.97,NNW,338,1.8,2.7,82,0.00,,,0.03,WUHU216HW,2013-03-03 03:36:00,
2013-03-02 19:41:00,43.0,38.2,29.97,WSW,248,1.8,2.2,83,0.00,,,0.03,WUHU216HW,2013-03-03 03:41:00,
2013-03-02 19:47:00,42.8,38.0,29.98,WSW,248,1.8,3.4,83,0.00,,,0.03,WUHU216HW,2013-03-03 03:47:00,
2013-03-02 19:52:00,42.8,37.7,29.98,NW,315,0.9,3.4,82,0.00,,,0.03,WUHU216HW,2013-03-03 03:52:00,
2013-03-02 19:57:00,43.0,37.9,29.98,NW,315,1.1,5.1,82,0.00,,,0.03,WUHU216HW,2013-03-03 03:57:00,
2013-03-02 20:02:00,43.0,38.2,29.99,WNW,293,4.9,6.3,83,0.00,,,0.03,WUHU216HW,2013-03-03 04:02:00,
2013-03-02 20:07:00,43.0,38.8,29.99,NW,315,4.7,6.9,85,0.00,,,0.03,WUHU216HW,2013-03-03 04:07:00,
2013-03-02 20:12:00,42.8,38.6,29.99,WNW,293,4.7,6.9,85,0.00,,,0.03,WUHU216HW,2013-03-03 04:12:00,
2013-03-02 20:17:00,42.8,38.9,29.99,NW,315,3.4,5.8,86,0.00,,,0.03,WUHU216HW,2013-03-03 04:17:00,
2013-03-02 20:22:00,42.5,38.3,29.99,West,270,4.7,4.9,85,0.00,,,0.03,WUHU216HW,2013-03-03 04:22:00,
2013-03-02 20:27:00,42.7,38.2,29.99,NW,315,4.7,8.3,84,0.00,,,0.03,WUHU216HW,2013-03-03 04:27:00,
2013-03-02 20:32:00,43.0,38.2,29.99,NW,315,7.4,8.3,83,0.00,,,0.03,WUHU216HW,2013-03-03 04:32:00,
2013-03-02 20:37:00,43.0,38.2,29.99,NW,315,3.8,10.3,83,0.00,,,0.03,WUHU216HW,2013-03-03 04:37:00,
2013-03-02 20:42:00,43.2,38.1,29.99,NW,315,10.1,10.3,82,0.00,,,0.03,WUHU216HW,2013-03-03 04:42:00,
2013-03-02 20:47:00,43.2,38.1,29.99,NW,315,3.6,10.1,82,0.00,,,0.03,WUHU216HW,2013-03-03 04:47:00,
2013-03-02 20:52:00,42.8,38.0,29.99,WNW,293,4.0,8.5,83,0.00,,,0.03,WUHU216HW,2013-03-03 04:52:00,
2013-03-02 20:57:00,42.7,37.8,29.99,West,270,4.0,5.8,83,0.00,,,0.03,WUHU216HW,2013-03-03 04:57:00,
2013-03-02 21:00:00,42.7,37.8,29.99,NW,315,5.4,7.8,83,0.00,,,0.03,WUHU216HW,2013-03-03 05:00:00,
2013-03-02 21:05:00,42.3,37.8,29.99,WSW,248,1.6,7.8,84,0.00,,,0.03,WUHU216HW,2013-03-03 05:05:00,
2013-03-02 21:10:00,42.1,37.3,29.99,North,0,2.0,4.9,83,0.00,,,0.03,WUHU216HW,2013-03-03 05:10:00,
2013-03-02 21:15:00,42.1,37.6,30.00,NNW,338,4.7,4.9,84,0.00,,,0.03,WUHU216HW,2013-03-03 05:15:00,
2013-03-02 21:20:00,41.8,37.5,30.00,NW,315,7.4,8.9,85,0.01,,,0.03,WUHU216HW,2013-03-03 05:20:00,
2013-03-02 21:25:00,41.8,37.8,30.00,NNW,338,4.3,9.6,86,0.01,,,0.03,WUHU216HW,2013-03-03 05:25:00,
2013-03-02 21:30:00,41.6,38.3,30.00,NNW,338,4.0,9.6,88,0.01,,,0.03,WUHU216HW,2013-03-03 05:30:00,
2013-03-02 21:35:00,41.4,38.1,30.00,NNW,338,4.5,7.6,88,0.02,,,0.04,WUHU216HW,2013-03-03 05:35:00,
2013-03-02 21:40:00,41.4,37.4,30.01,West,270,2.0,8.5,86,0.02,,,0.04,WUHU216HW,2013-03-03 05:40:00,
2013-03-02 21:45:00,41.4,37.8,30.00,NNW,338,2.2,8.5,87,0.02,,,0.04,WUHU216HW,2013-03-03 05:45:00,
2013-03-02 21:50:00,41.4,37.8,30.01,NNW,338,1.8,7.6,87,0.02,,,0.04,WUHU216HW,2013-03-03 05:50:00,
2013-03-02 21:55:00,41.0,37.1,30.01,NW,315,6.9,6.9,86,0.02,,,0.04,WUHU216HW,2013-03-03 05:55:00,
2013-03-02 22:00:00,40.9,37.3,30.01,NW,315,2.2,6.9,87,0.02,,,0.04,WUHU216HW,2013-03-03 06:00:00,
2013-03-02 22:05:00,40.7,37.1,30.01,NW,315,2.0,6.9,87,0.02,,,0.04,WUHU216HW,2013-03-03 06:05:00,
2013-03-02 22:10:00,40.9,36.9,30.01,WNW,293,2.9,3.4,86,0.02,,,0.04,WUHU216HW,2013-03-03 06:10:00,
2013-03-02 22:15:00,40.7,37.1,30.00,West,270,2.0,3.4,87,0.02,,,0.04,WUHU216HW,2013-03-03 06:15:00,
2013-03-02 22:20:00,40.5,36.6,30.00,NNW,338,1.3,4.0,86,0.01,,,0.04,WUHU216HW,2013-03-03 06:20:00,
2013-03-02 22:25:00,40.5,36.6,30.01,WSW,248,2.0,4.7,86,0.01,,,0.04,WUHU216HW,2013-03-03 06:25:00,
2013-03-02 22:30:00,40.7,36.2,30.01,NNW,338,2.5,4.7,84,0.00,,,0.04,WUHU216HW,2013-03-03 06:30:00,
2013-03-02 22:35:00,40.9,36.0,30.01,NW,315,6.3,6.3,83,0.00,,,0.04,WUHU216HW,2013-03-03 06:35:00,
2013-03-02 22:40:00,40.7,35.6,30.01,West,270,2.0,6.3,82,0.00,,,0.04,WUHU216HW,2013-03-03 06:40:00,
2013-03-02 22:45:00,40.7,35.6,30.01,NNW,338,1.1,6.3,82,0.00,,,0.04,WUHU216HW,2013-03-03 06:45:00,
2013-03-02 22:50:00,40.7,35.8,30.01,NW,315,2.5,4.7,83,0.00,,,0.04,WUHU216HW,2013-03-03 06:50:00,
2013-03-02 22:55:00,40.3,35.6,30.01,NNW,338,2.5,4.7,83,0.00,,,0.04,WUHU216HW,2013-03-03 06:55:00,
2013-03-02 23:00:00,40.5,35.4,30.01,West,270,2.0,4.0,82,0.00,,,0.04,WUHU216HW,2013-03-03 07:00:00,
2013-03-02 23:05:00,40.5,35.4,30.01,NW,315,1.6,4.7,82,0.00,,,0.04,WUHU216HW,2013-03-03 07:05:00,
2013-03-02 23:10:00,40.3,35.2,30.01,NW,315,1.3,4.7,82,0.00,,,0.04,WUHU216HW,2013-03-03 07:10:00,
2013-03-02 23:15:00,40.3,35.6,30.01,West,270,1.1,4.0,83,0.00,,,0.04,WUHU216HW,2013-03-03 07:15:00,
2013-03-02 23:20:00,40.3,35.6,30.01,West,270,3.6,3.6,83,0.00,,,0.04,WUHU216HW,2013-03-03 07:20:00,
2013-03-02 23:25:00,40.1,35.1,30.01,WSW,248,1.8,3.6,82,0.00,,,0.04,WUHU216HW,2013-03-03 07:25:00,
2013-03-02 23:30:00,40.0,34.9,30.01,WSW,248,1.1,4.3,82,0.00,,,0.04,WUHU216HW,2013-03-03 07:30:00,
2013-03-02 23:35:00,39.6,34.8,30.01,WSW,248,1.1,4.3,83,0.00,,,0.04,WUHU216HW,2013-03-03 07:35:00,
2013-03-02 23:40:00,39.2,34.6,30.01,NNE,23,0.2,3.8,83,0.00,,,0.04,WUHU216HW,2013-03-03 07:40:00,
2013-03-02 23:45:00,39.1,34.7,30.02,North,0,0.0,1.3,84,0.00,,,0.04,WUHU216HW,2013-03-03 07:45:00,
2013-03-02 23:50:00,38.7,34.3,30.02,West,270,0.9,0.9,84,0.00,,,0.04,WUHU216HW,2013-03-03 07:50:00,
2013-03-02 23:55:00,38.7,34.3,30.02,WSW,248,0.4,1.3,84,0.00,,,0.04,WUHU216HW,2013-03-03 07:55:00,